sensor_id;sensor_type;location;lat;lon;timestamp;P1;durP1;ratioP1;P2;durP2;ratioP2
19111;SDS011;9688;51.906;8.376;2023-08-20T00:00:52;47.72;;;27.35;;
19111;SDS011;9688;51.906;8.376;2023-08-20T00:03:39;48.03;;;28.43;;
19111;SDS011;9688;51.906;8.376;2023-08-20T00:06:27;47.27;;;27.47;;
19111;SDS011;9688;51.906;8.376;2023-08-20T00:09:14;43.53;;;25.67;;
19111;SDS011;9688;51.906;8.376;2023-08-20T00:12:03;42.08;;;24.02;;
19111;SDS011;9688;51.906;8.376;2023-08-20T00:14:52;40.25;;;23.60;;
19111;SDS011;9688;51.906;8.376;2023-08-20T00:17:42;34.93;;;21.57;;
19111;SDS011;9688;51.906;8.376;2023-08-20T00:20:29;35.15;;;21.38;;
19111;SDS011;9688;51.906;8.376;2023-08-20T00:23:15;33.67;;;21.10;;
19111;SDS011;9688;51.906;8.376;2023-08-20T00:26:01;32.17;;;19.73;;
19111;SDS011;9688;51.906;8.376;2023-08-20T00:28:47;28.57;;;17.60;;
19111;SDS011;9688;51.906;8.376;2023-08-20T00:31:33;27.67;;;16.35;;
19111;SDS011;9688;51.906;8.376;2023-08-20T00:34:20;30.80;;;17.67;;
19111;SDS011;9688;51.906;8.376;2023-08-20T00:37:05;26.57;;;15.63;;
19111;SDS011;9688;51.906;8.376;2023-08-20T00:39:51;29.33;;;16.70;;
19111;SDS011;9688;51.906;8.376;2023-08-20T00:42:36;28.77;;;17.70;;
19111;SDS011;9688;51.906;8.376;2023-08-20T00:45:22;25.73;;;16.57;;
19111;SDS011;9688;51.906;8.376;2023-08-20T00:48:08;26.40;;;16.13;;
19111;SDS011;9688;51.906;8.376;2023-08-20T00:50:56;25.63;;;16.50;;
19111;SDS011;9688;51.906;8.376;2023-08-20T00:53:43;35.60;;;17.60;;
19111;SDS011;9688;51.906;8.376;2023-08-20T00:56:30;31.67;;;18.27;;
19111;SDS011;9688;51.906;8.376;2023-08-20T01:02:53;31.63;;;19.47;;
19111;SDS011;9688;51.906;8.376;2023-08-20T01:05:46;38.00;;;19.67;;
19111;SDS011;9688;51.906;8.376;2023-08-20T01:08:40;33.03;;;18.53;;
19111;SDS011;9688;51.906;8.376;2023-08-20T01:11:29;31.60;;;18.53;;
19111;SDS011;9688;51.906;8.376;2023-08-20T01:14:19;32.47;;;18.13;;
19111;SDS011;9688;51.906;8.376;2023-08-20T01:17:05;25.47;;;15.13;;
19111;SDS011;9688;51.906;8.376;2023-08-20T01:19:52;26.07;;;13.20;;
19111;SDS011;9688;51.906;8.376;2023-08-20T01:22:44;25.53;;;13.03;;
19111;SDS011;9688;51.906;8.376;2023-08-20T01:25:49;22.27;;;10.40;;
19111;SDS011;9688;51.906;8.376;2023-08-20T01:28:45;14.50;;;8.20;;
19111;SDS011;9688;51.906;8.376;2023-08-20T01:31:31;16.27;;;7.90;;
19111;SDS011;9688;51.906;8.376;2023-08-20T01:34:18;12.70;;;7.80;;
19111;SDS011;9688;51.906;8.376;2023-08-20T01:37:04;12.87;;;8.00;;
19111;SDS011;9688;51.906;8.376;2023-08-20T01:39:50;19.13;;;8.67;;
19111;SDS011;9688;51.906;8.376;2023-08-20T01:42:36;17.87;;;8.87;;
19111;SDS011;9688;51.906;8.376;2023-08-20T01:45:23;16.17;;;8.83;;
19111;SDS011;9688;51.906;8.376;2023-08-20T01:48:10;18.73;;;9.10;;
19111;SDS011;9688;51.906;8.376;2023-08-20T01:50:55;16.10;;;9.27;;
19111;SDS011;9688;51.906;8.376;2023-08-20T01:53:41;15.93;;;8.00;;
19111;SDS011;9688;51.906;8.376;2023-08-20T01:56:29;16.73;;;8.80;;
19111;SDS011;9688;51.906;8.376;2023-08-20T01:59:15;11.83;;;8.00;;
19111;SDS011;9688;51.906;8.376;2023-08-20T02:02:03;13.60;;;7.87;;
19111;SDS011;9688;51.906;8.376;2023-08-20T02:04:50;10.60;;;7.60;;
19111;SDS011;9688;51.906;8.376;2023-08-20T02:07:35;13.70;;;6.97;;
19111;SDS011;9688;51.906;8.376;2023-08-20T02:10:21;12.60;;;7.13;;
19111;SDS011;9688;51.906;8.376;2023-08-20T02:13:07;11.50;;;6.43;;
19111;SDS011;9688;51.906;8.376;2023-08-20T02:15:57;11.40;;;6.87;;
19111;SDS011;9688;51.906;8.376;2023-08-20T02:18:44;11.93;;;6.83;;
19111;SDS011;9688;51.906;8.376;2023-08-20T02:21:30;15.23;;;7.23;;
19111;SDS011;9688;51.906;8.376;2023-08-20T02:24:16;13.73;;;7.10;;
19111;SDS011;9688;51.906;8.376;2023-08-20T02:27:02;12.57;;;7.13;;
19111;SDS011;9688;51.906;8.376;2023-08-20T02:29:48;11.37;;;7.07;;
19111;SDS011;9688;51.906;8.376;2023-08-20T02:32:35;11.80;;;7.00;;
19111;SDS011;9688;51.906;8.376;2023-08-20T02:35:21;15.23;;;7.77;;
19111;SDS011;9688;51.906;8.376;2023-08-20T02:38:08;18.17;;;7.47;;
19111;SDS011;9688;51.906;8.376;2023-08-20T02:40:54;12.87;;;6.63;;
19111;SDS011;9688;51.906;8.376;2023-08-20T02:43:39;16.90;;;7.57;;
19111;SDS011;9688;51.906;8.376;2023-08-20T02:46:25;10.07;;;6.50;;
19111;SDS011;9688;51.906;8.376;2023-08-20T02:49:11;13.17;;;6.67;;
19111;SDS011;9688;51.906;8.376;2023-08-20T02:51:59;12.23;;;7.33;;
19111;SDS011;9688;51.906;8.376;2023-08-20T02:54:47;11.03;;;7.07;;
19111;SDS011;9688;51.906;8.376;2023-08-20T02:57:33;11.50;;;6.73;;
19111;SDS011;9688;51.906;8.376;2023-08-20T03:00:18;13.37;;;7.03;;
19111;SDS011;9688;51.906;8.376;2023-08-20T03:03:05;15.20;;;7.40;;
19111;SDS011;9688;51.906;8.376;2023-08-20T03:05:52;12.93;;;7.17;;
19111;SDS011;9688;51.906;8.376;2023-08-20T03:08:39;11.97;;;7.60;;
19111;SDS011;9688;51.906;8.376;2023-08-20T03:11:25;10.73;;;7.60;;
19111;SDS011;9688;51.906;8.376;2023-08-20T03:14:11;9.63;;;7.10;;
19111;SDS011;9688;51.906;8.376;2023-08-20T03:16:56;13.17;;;7.90;;
19111;SDS011;9688;51.906;8.376;2023-08-20T03:19:53;12.77;;;7.90;;
19111;SDS011;9688;51.906;8.376;2023-08-20T03:22:40;14.10;;;8.60;;
19111;SDS011;9688;51.906;8.376;2023-08-20T03:25:27;11.30;;;6.70;;
19111;SDS011;9688;51.906;8.376;2023-08-20T03:28:12;14.77;;;7.03;;
19111;SDS011;9688;51.906;8.376;2023-08-20T03:30:59;12.50;;;6.97;;
19111;SDS011;9688;51.906;8.376;2023-08-20T03:33:46;13.73;;;7.40;;
19111;SDS011;9688;51.906;8.376;2023-08-20T03:36:32;13.53;;;6.97;;
19111;SDS011;9688;51.906;8.376;2023-08-20T03:39:18;12.37;;;7.37;;
19111;SDS011;9688;51.906;8.376;2023-08-20T03:42:06;15.00;;;7.30;;
19111;SDS011;9688;51.906;8.376;2023-08-20T03:44:51;12.00;;;7.37;;
19111;SDS011;9688;51.906;8.376;2023-08-20T03:47:37;12.10;;;7.10;;
19111;SDS011;9688;51.906;8.376;2023-08-20T03:50:23;18.87;;;8.40;;
19111;SDS011;9688;51.906;8.376;2023-08-20T03:53:09;14.67;;;8.00;;
19111;SDS011;9688;51.906;8.376;2023-08-20T03:55:54;17.87;;;8.63;;
19111;SDS011;9688;51.906;8.376;2023-08-20T03:58:42;16.30;;;8.43;;
19111;SDS011;9688;51.906;8.376;2023-08-20T04:01:27;15.80;;;8.63;;
19111;SDS011;9688;51.906;8.376;2023-08-20T04:04:13;14.23;;;8.33;;
19111;SDS011;9688;51.906;8.376;2023-08-20T04:07:00;15.73;;;8.83;;
19111;SDS011;9688;51.906;8.376;2023-08-20T04:09:45;15.90;;;8.80;;
19111;SDS011;9688;51.906;8.376;2023-08-20T04:12:31;17.00;;;9.00;;
19111;SDS011;9688;51.906;8.376;2023-08-20T04:15:18;18.37;;;9.07;;
19111;SDS011;9688;51.906;8.376;2023-08-20T04:18:04;16.43;;;8.97;;
19111;SDS011;9688;51.906;8.376;2023-08-20T04:20:50;16.27;;;8.13;;
19111;SDS011;9688;51.906;8.376;2023-08-20T04:23:39;19.93;;;8.80;;
19111;SDS011;9688;51.906;8.376;2023-08-20T04:26:25;15.67;;;8.47;;
19111;SDS011;9688;51.906;8.376;2023-08-20T04:29:11;12.90;;;7.70;;
19111;SDS011;9688;51.906;8.376;2023-08-20T04:31:58;17.20;;;8.77;;
19111;SDS011;9688;51.906;8.376;2023-08-20T04:34:44;12.17;;;8.07;;
19111;SDS011;9688;51.906;8.376;2023-08-20T04:37:30;12.37;;;8.17;;
19111;SDS011;9688;51.906;8.376;2023-08-20T04:40:16;19.13;;;8.97;;
19111;SDS011;9688;51.906;8.376;2023-08-20T04:43:02;18.63;;;9.13;;
19111;SDS011;9688;51.906;8.376;2023-08-20T04:45:49;17.30;;;8.47;;
19111;SDS011;9688;51.906;8.376;2023-08-20T04:48:36;17.37;;;8.27;;
19111;SDS011;9688;51.906;8.376;2023-08-20T04:51:21;11.23;;;7.80;;
19111;SDS011;9688;51.906;8.376;2023-08-20T04:54:07;17.03;;;7.73;;
19111;SDS011;9688;51.906;8.376;2023-08-20T04:56:53;12.53;;;7.73;;
19111;SDS011;9688;51.906;8.376;2023-08-20T04:59:38;15.23;;;7.43;;
19111;SDS011;9688;51.906;8.376;2023-08-20T05:02:27;13.90;;;7.90;;
19111;SDS011;9688;51.906;8.376;2023-08-20T05:05:14;12.07;;;7.30;;
19111;SDS011;9688;51.906;8.376;2023-08-20T05:07:59;13.53;;;7.90;;
19111;SDS011;9688;51.906;8.376;2023-08-20T05:10:45;12.77;;;7.20;;
19111;SDS011;9688;51.906;8.376;2023-08-20T05:13:31;13.37;;;7.90;;
19111;SDS011;9688;51.906;8.376;2023-08-20T05:16:17;14.30;;;7.87;;
19111;SDS011;9688;51.906;8.376;2023-08-20T05:19:03;13.47;;;7.60;;
19111;SDS011;9688;51.906;8.376;2023-08-20T05:21:50;13.10;;;7.63;;
19111;SDS011;9688;51.906;8.376;2023-08-20T05:24:36;11.33;;;7.50;;
19111;SDS011;9688;51.906;8.376;2023-08-20T05:27:22;13.73;;;8.00;;
19111;SDS011;9688;51.906;8.376;2023-08-20T05:30:08;16.77;;;8.43;;
19111;SDS011;9688;51.906;8.376;2023-08-20T05:32:54;15.73;;;8.53;;
19111;SDS011;9688;51.906;8.376;2023-08-20T05:35:40;14.83;;;8.10;;
19111;SDS011;9688;51.906;8.376;2023-08-20T05:38:27;13.90;;;8.10;;
19111;SDS011;9688;51.906;8.376;2023-08-20T05:41:13;10.27;;;8.00;;
19111;SDS011;9688;51.906;8.376;2023-08-20T05:43:58;13.70;;;7.20;;
19111;SDS011;9688;51.906;8.376;2023-08-20T05:46:45;12.07;;;7.00;;
19111;SDS011;9688;51.906;8.376;2023-08-20T05:49:30;13.40;;;7.13;;
19111;SDS011;9688;51.906;8.376;2023-08-20T05:52:16;11.63;;;6.10;;
19111;SDS011;9688;51.906;8.376;2023-08-20T05:55:03;14.43;;;6.67;;
19111;SDS011;9688;51.906;8.376;2023-08-20T05:57:51;8.63;;;5.80;;
19111;SDS011;9688;51.906;8.376;2023-08-20T06:00:36;7.97;;;5.20;;
19111;SDS011;9688;51.906;8.376;2023-08-20T06:03:22;7.37;;;5.07;;
19111;SDS011;9688;51.906;8.376;2023-08-20T06:06:08;7.63;;;4.53;;
19111;SDS011;9688;51.906;8.376;2023-08-20T06:08:54;7.13;;;4.63;;
19111;SDS011;9688;51.906;8.376;2023-08-20T06:11:42;7.87;;;4.17;;
19111;SDS011;9688;51.906;8.376;2023-08-20T06:14:28;12.17;;;4.53;;
19111;SDS011;9688;51.906;8.376;2023-08-20T06:17:13;9.73;;;5.10;;
19111;SDS011;9688;51.906;8.376;2023-08-20T06:19:59;9.77;;;4.80;;
19111;SDS011;9688;51.906;8.376;2023-08-20T06:22:45;12.30;;;5.35;;
19111;SDS011;9688;51.906;8.376;2023-08-20T06:25:31;9.87;;;5.20;;
19111;SDS011;9688;51.906;8.376;2023-08-20T06:28:18;9.90;;;5.20;;
19111;SDS011;9688;51.906;8.376;2023-08-20T06:31:04;9.88;;;5.80;;
19111;SDS011;9688;51.906;8.376;2023-08-20T06:33:50;9.73;;;5.85;;
19111;SDS011;9688;51.906;8.376;2023-08-20T06:36:36;6.90;;;5.43;;
19111;SDS011;9688;51.906;8.376;2023-08-20T06:39:21;11.75;;;5.65;;
19111;SDS011;9688;51.906;8.376;2023-08-20T06:42:07;8.05;;;5.32;;
19111;SDS011;9688;51.906;8.376;2023-08-20T06:44:54;11.48;;;5.47;;
19111;SDS011;9688;51.906;8.376;2023-08-20T06:47:40;8.90;;;5.78;;
19111;SDS011;9688;51.906;8.376;2023-08-20T06:50:26;12.00;;;5.75;;
19111;SDS011;9688;51.906;8.376;2023-08-20T06:53:12;10.18;;;5.95;;
19111;SDS011;9688;51.906;8.376;2023-08-20T06:56:00;8.65;;;6.43;;
19111;SDS011;9688;51.906;8.376;2023-08-20T06:58:46;8.73;;;6.57;;
19111;SDS011;9688;51.906;8.376;2023-08-20T07:01:33;8.45;;;5.90;;
19111;SDS011;9688;51.906;8.376;2023-08-20T07:04:19;10.45;;;6.95;;
19111;SDS011;9688;51.906;8.376;2023-08-20T07:07:05;14.95;;;6.28;;
19111;SDS011;9688;51.906;8.376;2023-08-20T07:09:51;10.68;;;6.65;;
19111;SDS011;9688;51.906;8.376;2023-08-20T07:12:37;12.68;;;6.80;;
19111;SDS011;9688;51.906;8.376;2023-08-20T07:15:23;12.90;;;6.65;;
19111;SDS011;9688;51.906;8.376;2023-08-20T07:18:11;10.88;;;7.93;;
19111;SDS011;9688;51.906;8.376;2023-08-20T07:20:58;15.38;;;8.27;;
19111;SDS011;9688;51.906;8.376;2023-08-20T07:23:44;17.83;;;10.93;;
19111;SDS011;9688;51.906;8.376;2023-08-20T07:26:30;23.30;;;12.30;;
19111;SDS011;9688;51.906;8.376;2023-08-20T07:29:16;23.20;;;13.35;;
19111;SDS011;9688;51.906;8.376;2023-08-20T07:32:02;21.85;;;13.70;;
19111;SDS011;9688;51.906;8.376;2023-08-20T07:34:49;22.63;;;12.80;;
19111;SDS011;9688;51.906;8.376;2023-08-20T07:37:35;20.23;;;13.00;;
19111;SDS011;9688;51.906;8.376;2023-08-20T07:40:21;25.27;;;13.20;;
19111;SDS011;9688;51.906;8.376;2023-08-20T07:43:07;21.27;;;13.43;;
19111;SDS011;9688;51.906;8.376;2023-08-20T07:45:53;24.25;;;13.70;;
19111;SDS011;9688;51.906;8.376;2023-08-20T07:48:39;20.35;;;12.60;;
19111;SDS011;9688;51.906;8.376;2023-08-20T07:51:26;24.10;;;13.70;;
19111;SDS011;9688;51.906;8.376;2023-08-20T07:54:14;20.52;;;12.55;;
19111;SDS011;9688;51.906;8.376;2023-08-20T07:56:59;21.58;;;13.52;;
19111;SDS011;9688;51.906;8.376;2023-08-20T07:59:45;25.20;;;14.82;;
19111;SDS011;9688;51.906;8.376;2023-08-20T08:02:31;22.60;;;13.45;;
19111;SDS011;9688;51.906;8.376;2023-08-20T08:05:17;20.13;;;13.85;;
19111;SDS011;9688;51.906;8.376;2023-08-20T08:08:07;24.80;;;13.90;;
19111;SDS011;9688;51.906;8.376;2023-08-20T08:10:52;24.48;;;16.30;;
19111;SDS011;9688;51.906;8.376;2023-08-20T08:13:39;24.83;;;16.08;;
19111;SDS011;9688;51.906;8.376;2023-08-20T08:16:24;25.48;;;16.52;;
19111;SDS011;9688;51.906;8.376;2023-08-20T08:19:10;28.15;;;18.88;;
19111;SDS011;9688;51.906;8.376;2023-08-20T08:21:56;28.30;;;17.83;;
19111;SDS011;9688;51.906;8.376;2023-08-20T08:24:43;28.13;;;20.30;;
19111;SDS011;9688;51.906;8.376;2023-08-20T08:27:29;31.02;;;19.45;;
19111;SDS011;9688;51.906;8.376;2023-08-20T08:30:15;30.00;;;19.00;;
19111;SDS011;9688;51.906;8.376;2023-08-20T08:33:00;32.40;;;18.80;;
19111;SDS011;9688;51.906;8.376;2023-08-20T08:35:46;29.05;;;19.50;;
19111;SDS011;9688;51.906;8.376;2023-08-20T08:38:33;27.67;;;18.55;;
19111;SDS011;9688;51.906;8.376;2023-08-20T08:41:22;28.17;;;18.80;;
19111;SDS011;9688;51.906;8.376;2023-08-20T08:44:10;25.92;;;17.38;;
19111;SDS011;9688;51.906;8.376;2023-08-20T08:46:57;32.08;;;19.13;;
19111;SDS011;9688;51.906;8.376;2023-08-20T08:49:43;29.30;;;18.77;;
19111;SDS011;9688;51.906;8.376;2023-08-20T08:52:33;28.13;;;18.63;;
19111;SDS011;9688;51.906;8.376;2023-08-20T08:55:23;32.65;;;20.52;;
19111;SDS011;9688;51.906;8.376;2023-08-20T08:58:10;29.13;;;19.35;;
19111;SDS011;9688;51.906;8.376;2023-08-20T09:00:56;28.55;;;17.42;;
19111;SDS011;9688;51.906;8.376;2023-08-20T09:03:42;25.98;;;17.45;;
19111;SDS011;9688;51.906;8.376;2023-08-20T09:06:29;26.52;;;18.30;;
19111;SDS011;9688;51.906;8.376;2023-08-20T09:09:30;21.08;;;16.35;;
19111;SDS011;9688;51.906;8.376;2023-08-20T09:12:17;25.35;;;16.70;;
19111;SDS011;9688;51.906;8.376;2023-08-20T09:15:09;27.58;;;17.45;;
19111;SDS011;9688;51.906;8.376;2023-08-20T09:17:55;21.67;;;14.70;;
19111;SDS011;9688;51.906;8.376;2023-08-20T09:20:41;22.45;;;14.63;;
19111;SDS011;9688;51.906;8.376;2023-08-20T09:23:28;20.08;;;13.80;;
19111;SDS011;9688;51.906;8.376;2023-08-20T09:26:15;17.52;;;12.45;;
19111;SDS011;9688;51.906;8.376;2023-08-20T09:29:01;16.63;;;12.18;;
19111;SDS011;9688;51.906;8.376;2023-08-20T09:31:50;15.60;;;11.60;;
19111;SDS011;9688;51.906;8.376;2023-08-20T09:34:47;12.45;;;9.77;;
19111;SDS011;9688;51.906;8.376;2023-08-20T09:37:36;11.85;;;9.35;;
19111;SDS011;9688;51.906;8.376;2023-08-20T09:40:22;13.65;;;10.30;;
19111;SDS011;9688;51.906;8.376;2023-08-20T09:43:09;12.57;;;10.80;;
19111;SDS011;9688;51.906;8.376;2023-08-20T09:45:58;14.50;;;10.18;;
19111;SDS011;9688;51.906;8.376;2023-08-20T09:48:49;14.98;;;11.25;;
19111;SDS011;9688;51.906;8.376;2023-08-20T09:51:38;13.23;;;10.00;;
19111;SDS011;9688;51.906;8.376;2023-08-20T09:54:28;13.05;;;10.35;;
19111;SDS011;9688;51.906;8.376;2023-08-20T09:57:23;14.80;;;9.50;;
19111;SDS011;9688;51.906;8.376;2023-08-20T10:00:13;12.98;;;9.63;;
19111;SDS011;9688;51.906;8.376;2023-08-20T10:02:59;15.75;;;9.10;;
19111;SDS011;9688;51.906;8.376;2023-08-20T10:05:47;10.60;;;8.18;;
19111;SDS011;9688;51.906;8.376;2023-08-20T10:08:34;9.85;;;7.90;;
19111;SDS011;9688;51.906;8.376;2023-08-20T10:11:21;9.77;;;7.35;;
19111;SDS011;9688;51.906;8.376;2023-08-20T10:14:08;12.30;;;7.22;;
19111;SDS011;9688;51.906;8.376;2023-08-20T10:16:54;10.63;;;7.85;;
19111;SDS011;9688;51.906;8.376;2023-08-20T10:19:42;11.02;;;8.23;;
19111;SDS011;9688;51.906;8.376;2023-08-20T10:22:35;9.60;;;7.80;;
19111;SDS011;9688;51.906;8.376;2023-08-20T10:25:22;12.00;;;8.15;;
19111;SDS011;9688;51.906;8.376;2023-08-20T10:28:12;8.68;;;7.80;;
19111;SDS011;9688;51.906;8.376;2023-08-20T10:31:03;8.98;;;7.63;;
19111;SDS011;9688;51.906;8.376;2023-08-20T10:33:53;10.27;;;7.70;;
19111;SDS011;9688;51.906;8.376;2023-08-20T10:36:41;10.43;;;7.80;;
19111;SDS011;9688;51.906;8.376;2023-08-20T10:39:29;8.18;;;6.70;;
19111;SDS011;9688;51.906;8.376;2023-08-20T10:42:22;7.00;;;6.15;;
19111;SDS011;9688;51.906;8.376;2023-08-20T10:45:09;9.00;;;5.97;;
19111;SDS011;9688;51.906;8.376;2023-08-20T10:47:57;7.00;;;6.40;;
19111;SDS011;9688;51.906;8.376;2023-08-20T10:50:42;7.55;;;6.40;;
19111;SDS011;9688;51.906;8.376;2023-08-20T10:53:31;6.30;;;5.68;;
19111;SDS011;9688;51.906;8.376;2023-08-20T10:56:18;6.53;;;5.15;;
19111;SDS011;9688;51.906;8.376;2023-08-20T10:59:05;5.55;;;4.72;;
19111;SDS011;9688;51.906;8.376;2023-08-20T11:01:53;7.68;;;5.40;;
19111;SDS011;9688;51.906;8.376;2023-08-20T11:04:42;5.85;;;5.18;;
19111;SDS011;9688;51.906;8.376;2023-08-20T11:07:30;6.85;;;5.30;;
19111;SDS011;9688;51.906;8.376;2023-08-20T11:10:19;6.10;;;5.43;;
19111;SDS011;9688;51.906;8.376;2023-08-20T11:13:08;6.13;;;5.28;;
19111;SDS011;9688;51.906;8.376;2023-08-20T11:15:55;7.32;;;6.00;;
19111;SDS011;9688;51.906;8.376;2023-08-20T11:18:41;6.82;;;6.13;;
19111;SDS011;9688;51.906;8.376;2023-08-20T11:21:27;6.63;;;5.72;;
19111;SDS011;9688;51.906;8.376;2023-08-20T11:24:13;7.45;;;6.53;;
19111;SDS011;9688;51.906;8.376;2023-08-20T11:27:00;10.18;;;6.68;;
19111;SDS011;9688;51.906;8.376;2023-08-20T11:29:47;6.82;;;5.90;;
19111;SDS011;9688;51.906;8.376;2023-08-20T11:32:33;6.68;;;5.72;;
19111;SDS011;9688;51.906;8.376;2023-08-20T11:35:20;7.45;;;6.10;;
19111;SDS011;9688;51.906;8.376;2023-08-20T11:38:09;7.40;;;6.07;;
19111;SDS011;9688;51.906;8.376;2023-08-20T11:40:55;6.80;;;6.20;;
19111;SDS011;9688;51.906;8.376;2023-08-20T11:43:43;6.25;;;5.60;;
19111;SDS011;9688;51.906;8.376;2023-08-20T11:46:30;6.13;;;5.38;;
19111;SDS011;9688;51.906;8.376;2023-08-20T11:49:16;6.18;;;5.57;;
19111;SDS011;9688;51.906;8.376;2023-08-20T11:52:02;8.00;;;5.68;;
19111;SDS011;9688;51.906;8.376;2023-08-20T11:54:48;8.45;;;6.03;;
19111;SDS011;9688;51.906;8.376;2023-08-20T11:57:34;6.70;;;6.00;;
19111;SDS011;9688;51.906;8.376;2023-08-20T12:00:26;10.07;;;6.18;;
19111;SDS011;9688;51.906;8.376;2023-08-20T12:03:14;12.52;;;8.40;;
19111;SDS011;9688;51.906;8.376;2023-08-20T12:06:14;7.55;;;6.40;;
19111;SDS011;9688;51.906;8.376;2023-08-20T12:09:18;7.40;;;5.70;;
19111;SDS011;9688;51.906;8.376;2023-08-20T12:12:05;7.28;;;5.68;;
19111;SDS011;9688;51.906;8.376;2023-08-20T12:14:52;7.03;;;5.70;;
19111;SDS011;9688;51.906;8.376;2023-08-20T12:17:37;7.68;;;5.50;;
19111;SDS011;9688;51.906;8.376;2023-08-20T12:20:26;6.13;;;5.53;;
19111;SDS011;9688;51.906;8.376;2023-08-20T12:23:14;6.30;;;5.68;;
19111;SDS011;9688;51.906;8.376;2023-08-20T12:25:59;6.30;;;5.65;;
19111;SDS011;9688;51.906;8.376;2023-08-20T12:28:45;6.72;;;5.65;;
19111;SDS011;9688;51.906;8.376;2023-08-20T12:31:32;6.10;;;5.60;;
19111;SDS011;9688;51.906;8.376;2023-08-20T12:34:19;6.15;;;5.55;;
19111;SDS011;9688;51.906;8.376;2023-08-20T12:37:06;5.95;;;5.35;;
19111;SDS011;9688;51.906;8.376;2023-08-20T12:39:53;6.63;;;5.95;;
19111;SDS011;9688;51.906;8.376;2023-08-20T12:42:38;8.88;;;5.90;;
19111;SDS011;9688;51.906;8.376;2023-08-20T12:45:24;7.90;;;5.63;;
19111;SDS011;9688;51.906;8.376;2023-08-20T12:48:10;7.25;;;5.88;;
19111;SDS011;9688;51.906;8.376;2023-08-20T12:50:56;6.35;;;5.70;;
19111;SDS011;9688;51.906;8.376;2023-08-20T12:53:44;8.80;;;5.50;;
19111;SDS011;9688;51.906;8.376;2023-08-20T12:56:30;8.07;;;5.57;;
19111;SDS011;9688;51.906;8.376;2023-08-20T12:59:16;5.30;;;4.80;;
19111;SDS011;9688;51.906;8.376;2023-08-20T13:02:02;6.57;;;5.13;;
19111;SDS011;9688;51.906;8.376;2023-08-20T13:04:48;6.88;;;5.30;;
19111;SDS011;9688;51.906;8.376;2023-08-20T13:07:34;8.63;;;5.57;;
19111;SDS011;9688;51.906;8.376;2023-08-20T13:10:23;8.48;;;5.53;;
19111;SDS011;9688;51.906;8.376;2023-08-20T13:13:09;6.03;;;5.50;;
19111;SDS011;9688;51.906;8.376;2023-08-20T13:15:56;7.07;;;5.38;;
19111;SDS011;9688;51.906;8.376;2023-08-20T13:18:43;6.60;;;5.88;;
19111;SDS011;9688;51.906;8.376;2023-08-20T13:21:29;6.25;;;5.53;;
19111;SDS011;9688;51.906;8.376;2023-08-20T13:24:14;7.18;;;5.25;;
19111;SDS011;9688;51.906;8.376;2023-08-20T13:27:02;6.00;;;5.30;;
19111;SDS011;9688;51.906;8.376;2023-08-20T13:29:48;5.57;;;5.03;;
19111;SDS011;9688;51.906;8.376;2023-08-20T13:32:34;7.60;;;5.82;;
19111;SDS011;9688;51.906;8.376;2023-08-20T13:35:20;6.85;;;5.70;;
19111;SDS011;9688;51.906;8.376;2023-08-20T13:38:06;6.60;;;5.95;;
19111;SDS011;9688;51.906;8.376;2023-08-20T13:40:52;7.80;;;5.57;;
19111;SDS011;9688;51.906;8.376;2023-08-20T13:43:43;5.70;;;4.88;;
19111;SDS011;9688;51.906;8.376;2023-08-20T13:46:29;6.03;;;5.43;;
19111;SDS011;9688;51.906;8.376;2023-08-20T13:49:15;7.45;;;5.55;;
19111;SDS011;9688;51.906;8.376;2023-08-20T13:52:01;7.18;;;5.22;;
19111;SDS011;9688;51.906;8.376;2023-08-20T13:54:47;5.22;;;4.72;;
19111;SDS011;9688;51.906;8.376;2023-08-20T13:57:33;5.30;;;4.80;;
19111;SDS011;9688;51.906;8.376;2023-08-20T14:00:20;7.13;;;5.00;;
19111;SDS011;9688;51.906;8.376;2023-08-20T14:03:06;5.65;;;5.15;;
19111;SDS011;9688;51.906;8.376;2023-08-20T14:05:52;5.53;;;4.95;;
19111;SDS011;9688;51.906;8.376;2023-08-20T14:08:37;6.25;;;5.10;;
19111;SDS011;9688;51.906;8.376;2023-08-20T14:11:25;5.70;;;5.20;;
19111;SDS011;9688;51.906;8.376;2023-08-20T14:14:11;5.28;;;4.85;;
19111;SDS011;9688;51.906;8.376;2023-08-20T14:16:59;6.03;;;5.18;;
19111;SDS011;9688;51.906;8.376;2023-08-20T14:19:49;5.63;;;4.97;;
19111;SDS011;9688;51.906;8.376;2023-08-20T14:22:37;8.32;;;6.20;;
19111;SDS011;9688;51.906;8.376;2023-08-20T14:25:25;6.25;;;5.20;;
19111;SDS011;9688;51.906;8.376;2023-08-20T14:28:11;6.20;;;5.70;;
19111;SDS011;9688;51.906;8.376;2023-08-20T14:30:57;5.30;;;4.80;;
19111;SDS011;9688;51.906;8.376;2023-08-20T14:33:48;6.22;;;5.15;;
19111;SDS011;9688;51.906;8.376;2023-08-20T14:36:34;5.60;;;5.15;;
19111;SDS011;9688;51.906;8.376;2023-08-20T14:39:20;6.80;;;5.82;;
19111;SDS011;9688;51.906;8.376;2023-08-20T14:42:06;7.38;;;5.55;;
19111;SDS011;9688;51.906;8.376;2023-08-20T14:44:53;7.82;;;5.55;;
19111;SDS011;9688;51.906;8.376;2023-08-20T14:47:39;6.72;;;5.97;;
19111;SDS011;9688;51.906;8.376;2023-08-20T14:50:27;7.10;;;6.13;;
19111;SDS011;9688;51.906;8.376;2023-08-20T14:53:12;8.40;;;5.80;;
19111;SDS011;9688;51.906;8.376;2023-08-20T14:55:58;8.02;;;6.47;;
19111;SDS011;9688;51.906;8.376;2023-08-20T14:58:44;6.03;;;5.53;;
19111;SDS011;9688;51.906;8.376;2023-08-20T15:01:30;6.25;;;5.75;;
19111;SDS011;9688;51.906;8.376;2023-08-20T15:04:15;6.53;;;5.82;;
19111;SDS011;9688;51.906;8.376;2023-08-20T15:07:03;6.53;;;5.90;;
19111;SDS011;9688;51.906;8.376;2023-08-20T15:09:49;6.90;;;6.20;;
19111;SDS011;9688;51.906;8.376;2023-08-20T15:12:35;6.70;;;6.10;;
19111;SDS011;9688;51.906;8.376;2023-08-20T15:15:22;7.10;;;6.40;;
19111;SDS011;9688;51.906;8.376;2023-08-20T15:18:10;7.65;;;6.38;;
19111;SDS011;9688;51.906;8.376;2023-08-20T15:20:59;8.32;;;5.68;;
19111;SDS011;9688;51.906;8.376;2023-08-20T15:23:46;6.55;;;5.70;;
19111;SDS011;9688;51.906;8.376;2023-08-20T15:26:32;5.90;;;5.40;;
19111;SDS011;9688;51.906;8.376;2023-08-20T15:29:18;7.00;;;6.00;;
19111;SDS011;9688;51.906;8.376;2023-08-20T15:32:04;6.55;;;5.50;;
19111;SDS011;9688;51.906;8.376;2023-08-20T15:34:50;6.03;;;5.43;;
19111;SDS011;9688;51.906;8.376;2023-08-20T15:37:36;10.10;;;5.63;;
19111;SDS011;9688;51.906;8.376;2023-08-20T15:40:26;6.15;;;5.45;;
19111;SDS011;9688;51.906;8.376;2023-08-20T15:43:11;6.03;;;5.40;;
19111;SDS011;9688;51.906;8.376;2023-08-20T15:45:57;7.13;;;5.47;;
19111;SDS011;9688;51.906;8.376;2023-08-20T15:48:43;7.25;;;5.93;;
19111;SDS011;9688;51.906;8.376;2023-08-20T15:51:29;7.95;;;6.43;;
19111;SDS011;9688;51.906;8.376;2023-08-20T15:54:15;9.48;;;5.93;;
19111;SDS011;9688;51.906;8.376;2023-08-20T15:57:02;7.72;;;6.25;;
19111;SDS011;9688;51.906;8.376;2023-08-20T15:59:48;7.82;;;6.40;;
19111;SDS011;9688;51.906;8.376;2023-08-20T16:02:34;7.43;;;6.57;;
19111;SDS011;9688;51.906;8.376;2023-08-20T16:05:20;7.03;;;6.20;;
19111;SDS011;9688;51.906;8.376;2023-08-20T16:08:06;7.78;;;6.45;;
19111;SDS011;9688;51.906;8.376;2023-08-20T16:10:52;10.13;;;6.45;;
19111;SDS011;9688;51.906;8.376;2023-08-20T16:13:39;7.90;;;6.53;;
19111;SDS011;9688;51.906;8.376;2023-08-20T16:16:25;9.63;;;6.57;;
19111;SDS011;9688;51.906;8.376;2023-08-20T16:19:11;7.25;;;6.22;;
19111;SDS011;9688;51.906;8.376;2023-08-20T16:21:57;7.97;;;5.95;;
19111;SDS011;9688;51.906;8.376;2023-08-20T16:24:43;7.63;;;6.38;;
19111;SDS011;9688;51.906;8.376;2023-08-20T16:27:29;10.23;;;6.38;;
19111;SDS011;9688;51.906;8.376;2023-08-20T16:30:18;6.93;;;6.22;;
19111;SDS011;9688;51.906;8.376;2023-08-20T16:33:05;7.07;;;6.32;;
19111;SDS011;9688;51.906;8.376;2023-08-20T16:35:53;10.88;;;6.93;;
19111;SDS011;9688;51.906;8.376;2023-08-20T16:38:42;6.95;;;6.25;;
19111;SDS011;9688;51.906;8.376;2023-08-20T16:41:27;7.85;;;6.43;;
19111;SDS011;9688;51.906;8.376;2023-08-20T16:44:13;6.90;;;5.97;;
19111;SDS011;9688;51.906;8.376;2023-08-20T16:47:01;6.75;;;6.15;;
19111;SDS011;9688;51.906;8.376;2023-08-20T16:49:47;7.90;;;6.15;;
19111;SDS011;9688;51.906;8.376;2023-08-20T16:52:33;6.50;;;5.90;;